Time;durP1;ratioP1;P1;durP2;ratioP2;P2;SDS_P1;SDS_P2;PMS_P1;PMS_P2;Temp;Humidity;BMP_temperature;BMP_pressure;BME280_temperature;BME280_humidity;BME280_pressure;Samples;Min_cycle;Max_cycle;Signal;HPM_P1;HPM_P2
2024/03/18 00:02:10;;;;;;;8.07;3.65;;;7.40;99.90;;;;;;4982199;28;20023;-77
2024/03/18 00:04:36;;;;;;;5.88;3.33;;;7.50;99.90;;;;;;4970003;28;20409;-77
2024/03/18 00:07:01;;;;;;;5.13;3.38;;;7.50;99.90;;;;;;4973559;28;20033;-77
2024/03/18 00:09:27;;;;;;;6.85;3.78;;;7.40;99.90;;;;;;4979273;28;20034;-77
2024/03/18 00:11:52;;;;;;;11.45;3.72;;;7.40;99.90;;;;;;4978195;28;20038;-77
2024/03/18 00:14:18;;;;;;;8.70;4.20;;;7.40;99.90;;;;;;4979447;28;20026;-77
2024/03/18 00:16:44;;;;;;;17.00;5.35;;;7.50;99.90;;;;;;4979749;28;20097;-77
2024/03/18 00:19:10;;;;;;;29.02;8.68;;;7.50;99.90;;;;;;4975802;28;20026;-76
2024/03/18 00:21:38;;;;;;;14.68;6.55;;;7.50;99.90;;;;;;4959724;28;20067;-75
2024/03/18 00:24:04;;;;;;;13.75;5.78;;;7.50;99.90;;;;;;4960215;28;20398;-76
2024/03/18 00:26:30;;;;;;;5.68;3.45;;;7.60;99.90;;;;;;4960162;28;20078;-77
2024/03/18 00:28:55;;;;;;;4.43;2.90;;;7.60;99.90;;;;;;4959622;28;20032;-77
2024/03/18 00:31:21;;;;;;;7.38;3.40;;;7.60;99.90;;;;;;4958718;28;20034;-77
2024/03/18 00:33:47;;;;;;;4.43;3.22;;;7.70;99.90;;;;;;4959288;28;20371;-77
2024/03/18 00:36:13;;;;;;;3.97;2.85;;;7.70;99.90;;;;;;4959482;28;20582;-77
2024/03/18 00:38:38;;;;;;;7.57;3.25;;;7.70;99.90;;;;;;4960656;28;20027;-77
2024/03/18 00:43:48;;;;;;;8.55;3.50;;;7.60;99.90;;;;;;4959379;29;20126;-77
2024/03/18 00:46:14;;;;;;;6.35;3.75;;;7.60;99.90;;;;;;4959444;28;20102;-77
2024/03/18 00:48:39;;;;;;;6.10;3.13;;;7.60;99.90;;;;;;4959584;28;20031;-77
2024/03/18 00:51:05;;;;;;;6.10;3.22;;;7.50;99.90;;;;;;4964272;28;20389;-77
2024/03/18 00:53:32;;;;;;;5.38;3.47;;;7.50;99.90;;;;;;4969836;28;20716;-77
2024/03/18 00:55:57;;;;;;;7.63;4.25;;;7.50;99.90;;;;;;4977658;28;20110;-76
2024/03/18 00:58:23;;;;;;;6.05;3.58;;;7.60;99.90;;;;;;4978876;28;20047;-77
2024/03/18 01:00:49;;;;;;;5.05;3.35;;;7.60;99.90;;;;;;4978738;28;20597;-77
2024/03/18 01:03:15;;;;;;;7.28;3.30;;;7.70;99.90;;;;;;4974418;28;20019;-77
2024/03/18 01:05:41;;;;;;;6.15;3.35;;;7.70;99.90;;;;;;4975729;28;20034;-77
2024/03/18 01:08:06;;;;;;;5.57;3.90;;;7.70;99.90;;;;;;4974529;28;20027;-77
2024/03/18 01:10:33;;;;;;;5.57;3.30;;;7.70;99.90;;;;;;4974394;28;20029;-77
2024/03/18 01:12:59;;;;;;;5.35;3.15;;;7.70;99.90;;;;;;4974937;28;20544;-77
2024/03/18 01:15:25;;;;;;;5.47;3.20;;;7.60;99.90;;;;;;4974314;28;20117;-77
2024/03/18 01:17:51;;;;;;;6.35;3.15;;;7.60;99.90;;;;;;4974199;28;20023;-77
2024/03/18 01:20:19;;;;;;;14.38;4.05;;;7.50;99.90;;;;;;4975762;28;20022;-77
2024/03/18 01:22:45;;;;;;;6.28;3.67;;;7.60;99.90;;;;;;4974535;28;20121;-77
2024/03/18 01:25:13;;;;;;;9.13;4.10;;;7.50;99.90;;;;;;4974087;28;20531;-77
2024/03/18 01:27:43;;;;;;;5.43;3.22;;;7.50;99.90;;;;;;4975525;28;20039;-77
2024/03/18 01:30:13;;;;;;;4.68;3.22;;;7.60;99.90;;;;;;4975367;28;20026;-77
2024/03/18 01:32:39;;;;;;;4.68;3.35;;;7.60;99.90;;;;;;4975301;28;20027;-76
2024/03/18 01:35:08;;;;;;;4.15;3.00;;;7.60;99.90;;;;;;4974229;28;20018;-77
2024/03/18 01:37:36;;;;;;;6.18;3.55;;;7.60;99.90;;;;;;4975122;28;20030;-77
2024/03/18 01:40:03;;;;;;;4.90;3.50;;;7.60;99.90;;;;;;4974039;28;20485;-76
2024/03/18 01:42:28;;;;;;;8.43;3.00;;;7.50;99.90;;;;;;4974013;28;20130;-77
2024/03/18 01:44:55;;;;;;;5.03;3.47;;;7.50;99.90;;;;;;4975029;28;20058;-77
2024/03/18 01:47:23;;;;;;;5.25;3.40;;;7.40;99.90;;;;;;4976024;28;20034;-77
2024/03/18 01:49:51;;;;;;;10.75;3.08;;;7.40;99.90;;;;;;4973635;28;20026;-77
2024/03/18 01:52:21;;;;;;;7.70;3.42;;;7.40;99.90;;;;;;4974963;28;20023;-77
2024/03/18 01:54:47;;;;;;;4.10;3.00;;;7.40;99.90;;;;;;4975309;28;20061;-76
2024/03/18 01:57:14;;;;;;;7.53;3.47;;;7.40;99.90;;;;;;4973618;28;20069;-76
2024/03/18 01:59:40;;;;;;;7.40;3.72;;;7.40;99.90;;;;;;4973437;28;20390;-76
2024/03/18 02:02:07;;;;;;;7.75;3.65;;;7.40;99.90;;;;;;4974390;28;20054;-77
2024/03/18 02:04:32;;;;;;;5.70;3.33;;;7.30;99.90;;;;;;4974310;28;20256;-76
2024/03/18 02:06:58;;;;;;;7.07;3.00;;;7.30;99.90;;;;;;4976235;28;20082;-77
2024/03/18 02:09:27;;;;;;;4.70;3.60;;;7.40;99.90;;;;;;4975201;28;20019;-77
2024/03/18 02:11:57;;;;;;;4.20;2.88;;;7.40;99.90;;;;;;4973098;28;20033;-75
2024/03/18 02:14:23;;;;;;;6.40;3.50;;;7.40;99.90;;;;;;4974198;28;20027;-77
2024/03/18 02:16:49;;;;;;;5.07;3.10;;;7.50;99.90;;;;;;4976167;28;20046;-77
2024/03/18 02:19:14;;;;;;;3.47;3.17;;;7.50;99.90;;;;;;4975067;28;20476;-77
2024/03/18 02:21:40;;;;;;;6.70;3.03;;;7.50;99.90;;;;;;4972973;28;20034;-77
2024/03/18 02:24:09;;;;;;;6.18;3.63;;;7.50;99.90;;;;;;4975176;28;20022;-77
2024/03/18 02:26:35;;;;;;;6.32;3.63;;;7.40;99.90;;;;;;4975059;28;20035;-77
2024/03/18 02:29:00;;;;;;;7.93;3.58;;;7.40;99.90;;;;;;4975024;28;20031;-77
2024/03/18 02:31:26;;;;;;;6.18;3.53;;;7.40;99.90;;;;;;4973723;28;20379;-77
2024/03/18 02:33:52;;;;;;;3.80;2.88;;;7.40;99.90;;;;;;4972841;28;20023;-77
2024/03/18 02:36:18;;;;;;;5.07;3.80;;;7.40;99.90;;;;;;4974118;28;20478;-77
2024/03/18 02:38:47;;;;;;;6.18;3.30;;;7.40;99.90;;;;;;4973755;28;20049;-77
2024/03/18 02:41:12;;;;;;;6.28;3.17;;;7.50;99.90;;;;;;4974088;28;20054;-76
2024/03/18 02:43:38;;;;;;;5.45;2.95;;;7.50;99.90;;;;;;4974503;28;20478;-76
2024/03/18 02:46:04;;;;;;;5.65;3.35;;;7.50;99.90;;;;;;4972821;28;20034;-77
2024/03/18 02:48:31;;;;;;;4.60;3.00;;;7.50;99.90;;;;;;4972310;28;20033;-76
2024/03/18 02:50:57;;;;;;;6.63;3.65;;;7.50;99.90;;;;;;4972966;28;20066;-76
2024/03/18 02:53:23;;;;;;;3.67;2.95;;;7.40;99.90;;;;;;4974320;28;20512;-76
2024/03/18 02:55:49;;;;;;;6.38;3.33;;;7.50;99.90;;;;;;4973729;28;20033;-76
2024/03/18 02:58:16;;;;;;;6.22;3.63;;;7.50;99.90;;;;;;4974122;28;20027;-76
2024/03/18 03:00:42;;;;;;;4.57;3.08;;;7.40;99.90;;;;;;4972745;28;20062;-76
2024/03/18 03:03:08;;;;;;;9.65;3.97;;;7.40;99.90;;;;;;4974171;28;20501;-76
2024/03/18 03:05:33;;;;;;;4.57;3.35;;;7.40;99.90;;;;;;4972507;28;20038;-76
2024/03/18 03:08:00;;;;;;;6.70;3.70;;;7.50;99.90;;;;;;4973612;28;20046;-76
2024/03/18 03:10:25;;;;;;;6.93;3.67;;;7.50;99.90;;;;;;4973717;28;20030;-75
2024/03/18 03:12:51;;;;;;;6.13;3.25;;;7.50;99.90;;;;;;4973857;28;20027;-76
2024/03/18 03:15:17;;;;;;;5.40;3.78;;;7.50;99.90;;;;;;4972556;28;20415;-76
2024/03/18 03:17:43;;;;;;;7.13;2.92;;;7.50;99.90;;;;;;4974178;28;20038;-77
2024/03/18 03:20:09;;;;;;;6.57;4.28;;;7.50;99.90;;;;;;4973562;28;20449;-76
2024/03/18 03:22:36;;;;;;;5.32;3.90;;;7.50;99.90;;;;;;4973937;28;20029;-76
2024/03/18 03:25:03;;;;;;;9.05;4.22;;;7.50;99.90;;;;;;4971794;28;20054;-76
2024/03/18 03:27:29;;;;;;;11.88;4.68;;;7.50;99.90;;;;;;4974769;28;20022;-77
2024/03/18 03:29:55;;;;;;;11.48;4.35;;;7.50;99.90;;;;;;4973858;28;20481;-76
2024/03/18 03:32:22;;;;;;;10.73;4.90;;;7.50;99.90;;;;;;4972787;28;20023;-76
2024/03/18 03:34:47;;;;;;;12.85;5.32;;;7.40;99.90;;;;;;4973835;28;20073;-76
2024/03/18 03:37:13;;;;;;;11.30;4.32;;;7.40;99.90;;;;;;4973172;28;20572;-76
2024/03/18 03:39:39;;;;;;;6.32;3.60;;;7.40;99.90;;;;;;4972494;28;20046;-76
2024/03/18 03:42:05;;;;;;;10.23;3.72;;;7.40;99.90;;;;;;4971873;28;20484;-77
2024/03/18 03:44:31;;;;;;;8.50;3.30;;;7.40;99.90;;;;;;4951033;28;20053;-76
2024/03/18 03:46:57;;;;;;;7.43;3.30;;;7.40;99.90;;;;;;4962101;28;20035;-75
2024/03/18 03:49:25;;;;;;;6.03;3.85;;;7.40;99.90;;;;;;4961525;28;20023;-75
2024/03/18 03:51:51;;;;;;;7.80;3.60;;;7.50;99.90;;;;;;4948716;29;20087;-76
2024/03/18 03:54:17;;;;;;;6.55;3.83;;;7.50;99.90;;;;;;4934491;29;20027;-76
2024/03/18 03:56:42;;;;;;;8.10;3.40;;;7.50;99.90;;;;;;4950388;29;20035;-76
2024/03/18 03:59:08;;;;;;;6.72;2.78;;;7.50;99.90;;;;;;4950052;29;20063;-76
2024/03/18 04:01:34;;;;;;;3.45;2.25;;;7.50;99.90;;;;;;4934360;29;20482;-76
2024/03/18 04:03:59;;;;;;;2.60;2.03;;;7.50;99.90;;;;;;4949259;28;20046;-76
2024/03/18 04:06:26;;;;;;;2.58;1.50;;;7.50;99.90;;;;;;4934453;29;20623;-77
2024/03/18 04:08:52;;;;;;;2.92;1.85;;;7.50;99.90;;;;;;4934842;29;20027;-76
2024/03/18 04:11:17;;;;;;;1.92;1.48;;;7.50;99.90;;;;;;4952834;29;20055;-77
2024/03/18 04:13:43;;;;;;;3.10;2.28;;;7.40;99.90;;;;;;4979451;28;20042;-77
2024/03/18 04:16:10;;;;;;;2.17;1.88;;;7.40;99.90;;;;;;4973112;28;20421;-77
2024/03/18 04:18:35;;;;;;;10.35;2.75;;;7.40;99.90;;;;;;4972895;28;20031;-77
2024/03/18 04:21:04;;;;;;;3.08;2.20;;;7.40;99.90;;;;;;4973830;28;20027;-77
2024/03/18 04:23:32;;;;;;;2.85;2.05;;;7.40;99.90;;;;;;4971662;28;20033;-77
2024/03/18 04:26:00;;;;;;;3.45;1.85;;;7.40;99.90;;;;;;4971797;28;20027;-77
2024/03/18 04:28:27;;;;;;;2.83;2.15;;;7.40;99.90;;;;;;4971482;28;20397;-77
2024/03/18 04:30:53;;;;;;;2.72;1.98;;;7.40;99.90;;;;;;4973309;28;20023;-77
2024/03/18 04:33:19;;;;;;;3.92;2.08;;;7.40;99.90;;;;;;4971775;28;20030;-77
2024/03/18 04:35:45;;;;;;;2.08;1.65;;;7.50;99.90;;;;;;4972637;28;20027;-77
2024/03/18 04:38:11;;;;;;;1.80;1.70;;;7.40;99.90;;;;;;4974090;28;20027;-76
2024/03/18 04:40:36;;;;;;;5.38;2.50;;;7.40;99.90;;;;;;4952036;28;20035;-77
2024/03/18 04:43:02;;;;;;;8.20;3.67;;;7.40;99.90;;;;;;4967128;28;20082;-77
2024/03/18 04:45:28;;;;;;;11.35;5.32;;;7.40;99.90;;;;;;4967076;28;20490;-77
2024/03/18 04:47:54;;;;;;;7.30;3.60;;;7.40;99.90;;;;;;4977280;28;20027;-77
2024/03/18 04:50:24;;;;;;;7.88;3.40;;;7.40;99.90;;;;;;4976314;28;20486;-77
2024/03/18 04:52:52;;;;;;;4.78;3.28;;;7.40;99.90;;;;;;4973208;28;20453;-77
2024/03/18 04:55:19;;;;;;;6.07;3.42;;;7.40;99.90;;;;;;4968270;28;20019;-76
2024/03/18 04:57:45;;;;;;;3.92;3.17;;;7.40;99.90;;;;;;4975211;28;20032;-76
2024/03/18 05:00:14;;;;;;;5.93;2.25;;;7.40;99.90;;;;;;4969452;28;20529;-77
2024/03/18 05:02:40;;;;;;;6.13;2.67;;;7.40;99.90;;;;;;4965510;28;20027;-76
2024/03/18 05:05:07;;;;;;;4.65;3.20;;;7.30;99.90;;;;;;4974327;28;20177;-77
2024/03/18 05:07:33;;;;;;;7.10;3.20;;;7.40;99.90;;;;;;4974413;28;20034;-77
2024/03/18 05:09:59;;;;;;;5.50;3.08;;;7.40;99.90;;;;;;4976161;28;20641;-77
2024/03/18 05:12:25;;;;;;;5.03;2.80;;;7.40;99.90;;;;;;4973959;28;20027;-77
2024/03/18 05:14:50;;;;;;;3.40;2.15;;;7.40;99.90;;;;;;4976406;28;20513;-77
2024/03/18 05:17:17;;;;;;;3.95;2.40;;;7.40;99.90;;;;;;4976036;28;20441;-77
2024/03/18 05:19:42;;;;;;;4.72;2.35;;;7.40;99.90;;;;;;4975160;28;20027;-77
2024/03/18 05:22:08;;;;;;;3.67;1.92;;;7.40;99.90;;;;;;4975379;28;20125;-77
2024/03/18 05:24:34;;;;;;;6.15;2.35;;;7.40;99.90;;;;;;4974027;28;20034;-76
2024/03/18 05:27:00;;;;;;;5.40;2.08;;;7.50;99.90;;;;;;4974238;28;20458;-77
2024/03/18 05:29:26;;;;;;;3.95;2.40;;;7.40;99.90;;;;;;4971462;28;20494;-76
2024/03/18 05:31:52;;;;;;;10.63;3.20;;;7.40;99.90;;;;;;4955801;28;20055;-77
2024/03/18 05:34:18;;;;;;;5.00;3.13;;;7.40;99.90;;;;;;4955778;28;20031;-76
2024/03/18 05:36:43;;;;;;;21.92;13.18;;;7.40;99.90;;;;;;4956133;28;20086;-77
2024/03/18 05:39:10;;;;;;;250.88;100.75;;;7.40;99.90;;;;;;4954832;29;20031;-77
2024/03/18 05:41:35;;;;;;;97.95;47.60;;;7.40;99.90;;;;;;4954036;28;20023;-77
2024/03/18 05:44:02;;;;;;;68.47;35.85;;;7.30;99.90;;;;;;4955899;29;20042;-77
2024/03/18 05:46:28;;;;;;;59.05;34.95;;;7.30;99.90;;;;;;4955719;28;20019;-77
2024/03/18 05:48:53;;;;;;;18.67;13.90;;;7.40;99.90;;;;;;4955462;28;20102;-77
2024/03/18 05:51:19;;;;;;;16.45;11.68;;;7.40;99.90;;;;;;4956579;28;20093;-77
2024/03/18 05:53:45;;;;;;;62.90;43.63;;;7.40;99.90;;;;;;4955688;28;20606;-77
2024/03/18 05:56:11;;;;;;;14.02;10.35;;;7.50;99.90;;;;;;4955995;28;20605;-77
2024/03/18 05:58:40;;;;;;;6.45;4.40;;;7.40;99.90;;;;;;4956198;29;20058;-77
2024/03/18 06:01:13;;;;;;;8.15;2.90;;;7.40;99.90;;;;;;4956050;29;20030;-77
2024/03/18 06:03:39;;;;;;;3.20;2.33;;;7.50;99.90;;;;;;4954557;29;20038;-77
2024/03/18 06:06:10;;;;;;;3.05;2.60;;;7.60;99.90;;;;;;4954933;29;20050;-77
2024/03/18 06:08:36;;;;;;;9.82;3.65;;;7.60;99.90;;;;;;4955913;29;20026;-77
2024/03/18 06:11:02;;;;;;;7.88;2.88;;;7.60;99.90;;;;;;4955676;29;20569;-77
2024/03/18 06:13:28;;;;;;;4.90;2.67;;;7.50;99.90;;;;;;4954877;29;20050;-77
2024/03/18 06:15:54;;;;;;;7.15;2.65;;;7.50;99.90;;;;;;4955685;28;20050;-77
2024/03/18 06:18:20;;;;;;;6.65;3.15;;;7.50;99.90;;;;;;4960256;28;20198;-77
2024/03/18 06:20:50;;;;;;;4.65;3.05;;;7.50;99.90;;;;;;4963525;28;20102;-75
2024/03/18 06:23:18;;;;;;;4.90;3.38;;;8.40;99.90;;;;;;4955028;28;20078;-77
2024/03/18 06:26:00;;;;;;;4.80;3.10;;;8.20;99.90;;;;;;4964188;28;20464;-76
2024/03/18 06:28:30;;;;;;;5.03;3.22;;;8.20;99.90;;;;;;4974799;28;20030;-76
2024/03/18 06:30:56;;;;;;;6.57;3.33;;;8.20;99.90;;;;;;4956537;28;20029;-77
2024/03/18 06:33:23;;;;;;;6.45;4.00;;;8.20;99.90;;;;;;4961987;28;20037;-77
2024/03/18 06:35:51;;;;;;;3.35;2.67;;;8.10;99.90;;;;;;4966484;28;20034;-77
2024/03/18 06:38:17;;;;;;;4.45;2.67;;;8.20;99.90;;;;;;4974775;28;20019;-76
2024/03/18 06:40:44;;;;;;;4.25;2.92;;;8.10;99.90;;;;;;4975457;28;20030;-76
2024/03/18 06:43:09;;;;;;;3.17;2.80;;;8.20;99.90;;;;;;4975736;28;20030;-77
2024/03/18 06:45:36;;;;;;;6.32;3.88;;;8.30;99.90;;;;;;4975734;28;20034;-77
2024/03/18 06:48:03;;;;;;;5.60;3.22;;;8.20;99.90;;;;;;4975277;28;20027;-77
2024/03/18 06:50:30;;;;;;;5.50;3.08;;;8.30;99.90;;;;;;4974369;28;20034;-77
2024/03/18 06:52:57;;;;;;;6.20;3.78;;;8.40;99.90;;;;;;4974033;28;20033;-77
2024/03/18 06:55:23;;;;;;;3.60;2.58;;;8.40;98.60;;;;;;4970247;28;20110;-77
2024/03/18 06:57:49;;;;;;;11.73;3.42;;;8.40;97.90;;;;;;4970985;28;20027;-77
2024/03/18 07:00:19;;;;;;;9.18;3.28;;;8.40;96.90;;;;;;4954706;28;20035;-77
2024/03/18 07:02:49;;;;;;;6.78;3.53;;;8.30;97.10;;;;;;4954482;28;20449;-77
2024/03/18 07:05:18;;;;;;;6.80;4.50;;;8.40;98.30;;;;;;4954820;28;20109;-77
2024/03/18 07:07:44;;;;;;;4.10;3.05;;;8.50;97.40;;;;;;4953321;29;20031;-76
2024/03/18 07:10:11;;;;;;;6.97;3.05;;;8.40;94.40;;;;;;4953320;29;20391;-76
2024/03/18 07:12:43;;;;;;;5.38;3.47;;;8.50;94.10;;;;;;4953250;29;20114;-77
2024/03/18 07:15:13;;;;;;;6.78;3.70;;;8.60;94.20;;;;;;4955680;28;20459;-76
2024/03/18 07:17:40;;;;;;;10.70;4.35;;;8.80;95.30;;;;;;4965526;28;20184;-76
2024/03/18 07:20:08;;;;;;;9.90;7.43;;;8.90;94.10;;;;;;4966798;28;20029;-76
2024/03/18 07:22:34;;;;;;;6.85;3.90;;;9.00;92.90;;;;;;4970092;28;20078;-76
2024/03/18 07:24:59;;;;;;;3.65;2.92;;;9.10;91.90;;;;;;4966648;28;20027;-77
2024/03/18 07:27:26;;;;;;;3.95;2.88;;;9.10;91.40;;;;;;4975686;28;20034;-78
2024/03/18 07:29:56;;;;;;;3.33;2.30;;;9.10;90.50;;;;;;4982221;28;20019;-77
2024/03/18 07:32:23;;;;;;;5.20;3.22;;;9.10;89.80;;;;;;4975424;28;20033;-77
2024/03/18 07:34:49;;;;;;;7.57;3.08;;;9.10;90.20;;;;;;4974124;28;20105;-77
2024/03/18 07:37:15;;;;;;;6.43;2.90;;;9.10;88.70;;;;;;4975824;28;20031;-77
2024/03/18 07:39:40;;;;;;;3.72;2.53;;;9.00;88.50;;;;;;4974114;28;20041;-77
2024/03/18 07:42:06;;;;;;;5.25;3.08;;;9.00;89.10;;;;;;4973820;28;20049;-77
2024/03/18 07:44:32;;;;;;;5.78;3.00;;;9.10;89.40;;;;;;4974324;28;20489;-77
2024/03/18 07:46:58;;;;;;;4.93;3.58;;;9.20;89.10;;;;;;4974005;28;20031;-77
2024/03/18 07:49:24;;;;;;;3.08;2.58;;;9.20;88.60;;;;;;4973397;28;20101;-77
2024/03/18 07:51:49;;;;;;;3.35;2.75;;;9.20;90.70;;;;;;4974626;28;20027;-77
2024/03/18 07:54:16;;;;;;;5.63;2.85;;;9.20;89.30;;;;;;4961033;28;20019;-77
2024/03/18 07:56:41;;;;;;;4.40;2.40;;;9.20;88.90;;;;;;4958608;28;20038;-77
2024/03/18 07:59:10;;;;;;;6.32;3.13;;;9.30;87.10;;;;;;4952834;28;20027;-77
2024/03/18 08:01:35;;;;;;;7.25;3.70;;;9.40;87.50;;;;;;4961949;28;20122;-77
2024/03/18 08:04:01;;;;;;;3.60;2.67;;;9.50;87.30;;;;;;4988654;23;20074;-74
2024/03/18 08:06:27;;;;;;;2.83;2.38;;;9.50;86.10;;;;;;4945860;28;20525;-74
2024/03/18 08:08:53;;;;;;;8.07;3.25;;;9.50;87.20;;;;;;4957863;28;20500;-75
2024/03/18 08:11:19;;;;;;;3.33;2.70;;;9.50;87.90;;;;;;4950463;28;20026;-75
2024/03/18 08:13:45;;;;;;;7.28;3.58;;;9.80;97.70;;;;;;4948787;28;20111;-75
2024/03/18 08:16:10;;;;;;;3.08;2.75;;;10.60;98.40;;;;;;4957318;29;20027;-75
2024/03/18 08:18:36;;;;;;;7.90;3.42;;;10.70;91.30;;;;;;4956129;29;20106;-75
2024/03/18 08:21:02;;;;;;;4.13;2.80;;;10.80;86.60;;;;;;4957225;29;20023;-75
2024/03/18 08:23:27;;;;;;;3.60;2.85;;;11.10;93.00;;;;;;4952570;28;20020;-75
2024/03/18 08:25:53;;;;;;;3.72;2.33;;;11.50;86.10;;;;;;4947275;29;20058;-75
2024/03/18 08:28:19;;;;;;;4.88;2.53;;;11.30;76.90;;;;;;4949001;29;20023;-74
2024/03/18 08:30:44;;;;;;;3.72;2.10;;;10.70;73.70;;;;;;4957007;29;20098;-76
2024/03/18 08:33:10;;;;;;;5.65;2.28;;;10.20;74.90;;;;;;4956468;29;20111;-75
2024/03/18 08:35:38;;;;;;;4.80;2.33;;;10.00;76.90;;;;;;4957057;28;20027;-75
2024/03/18 08:38:05;;;;;;;8.75;2.60;;;10.00;77.50;;;;;;4956075;29;20038;-74
2024/03/18 08:40:30;;;;;;;6.18;2.15;;;9.90;75.60;;;;;;4956986;29;20511;-74
2024/03/18 08:42:56;;;;;;;4.10;2.05;;;9.80;74.90;;;;;;4955060;29;20121;-74
2024/03/18 08:45:22;;;;;;;3.50;1.90;;;9.80;74.00;;;;;;4956677;28;20494;-74
2024/03/18 08:47:48;;;;;;;2.28;1.70;;;9.90;74.00;;;;;;4947261;28;20114;-73
2024/03/18 08:50:14;;;;;;;3.75;2.40;;;11.30;97.50;;;;;;4955065;28;20105;-74
2024/03/18 08:52:40;;;;;;;3.83;2.67;;;11.60;84.70;;;;;;4948759;28;20050;-73
2024/03/18 08:55:06;;;;;;;3.88;2.72;;;11.60;85.50;;;;;;4947803;29;20483;-73
2024/03/18 08:57:32;;;;;;;4.00;2.13;;;11.60;75.10;;;;;;4952335;29;20165;-74
2024/03/18 08:59:58;;;;;;;2.92;2.35;;;11.10;72.80;;;;;;4947927;29;20059;-74
2024/03/18 09:02:24;;;;;;;2.30;1.90;;;11.00;73.60;;;;;;4954561;29;20501;-74
2024/03/18 09:04:49;;;;;;;4.35;1.95;;;10.70;75.90;;;;;;4954866;28;20402;-75
2024/03/18 09:07:15;;;;;;;2.63;2.20;;;10.60;76.00;;;;;;4954815;28;20063;-74
2024/03/18 09:09:41;;;;;;;5.15;2.42;;;10.60;75.70;;;;;;4958079;28;20031;-74
2024/03/18 09:12:07;;;;;;;4.32;1.90;;;10.50;73.20;;;;;;4960273;28;20409;-75
2024/03/18 09:14:32;;;;;;;5.18;2.30;;;10.60;74.10;;;;;;4948378;28;20138;-74
2024/03/18 09:17:01;;;;;;;7.00;2.40;;;11.80;83.60;;;;;;4953649;29;20023;-75
2024/03/18 09:19:28;;;;;;;2.97;2.00;;;11.50;72.40;;;;;;4943682;29;20032;-77
2024/03/18 09:21:53;;;;;;;5.50;3.35;;;11.30;71.70;;;;;;4953012;29;20031;-77
2024/03/18 09:24:19;;;;;;;4.32;2.75;;;11.20;72.60;;;;;;4943241;28;20079;-76
2024/03/18 09:26:46;;;;;;;10.77;2.33;;;11.10;70.30;;;;;;4954106;29;20038;-76
2024/03/18 09:29:12;;;;;;;3.47;2.30;;;11.20;72.30;;;;;;4951224;29;20023;-75
2024/03/18 09:31:38;;;;;;;5.47;2.65;;;11.30;71.10;;;;;;4944168;29;20045;-74
2024/03/18 09:34:03;;;;;;;3.65;2.45;;;11.40;71.20;;;;;;4936604;29;20493;-75
2024/03/18 09:36:29;;;;;;;3.15;2.10;;;11.60;71.80;;;;;;4935268;29;20031;-74
2024/03/18 09:38:55;;;;;;;5.95;2.40;;;11.10;69.70;;;;;;4936324;29;20099;-75
2024/03/18 09:41:20;;;;;;;5.85;2.33;;;11.10;71.50;;;;;;4936431;29;20095;-75
2024/03/18 09:43:47;;;;;;;3.45;2.35;;;11.10;74.60;;;;;;4935612;29;20485;-75
2024/03/18 09:46:18;;;;;;;4.70;2.22;;;11.10;72.00;;;;;;4935138;29;20530;-75
2024/03/18 09:48:44;;;;;;;3.10;1.90;;;11.00;72.40;;;;;;4936648;29;20046;-77
2024/03/18 09:51:17;;;;;;;5.38;3.00;;;11.20;71.20;;;;;;4936165;29;20494;-76
2024/03/18 09:53:46;;;;;;;2.55;2.03;;;11.30;73.10;;;;;;4935656;29;20525;-76
2024/03/18 09:56:15;;;;;;;17.90;12.20;;;11.20;72.10;;;;;;4934823;29;20055;-75
2024/03/18 09:58:42;;;;;;;11.82;6.47;;;11.40;74.80;;;;;;4936687;29;20024;-75
2024/03/18 10:01:12;;;;;;;9.43;5.60;;;11.40;74.10;;;;;;4937939;29;20035;-81
2024/03/18 10:03:40;;;;;;;4.72;2.42;;;11.30;73.40;;;;;;4934285;29;20023;-76
2024/03/18 10:06:06;;;;;;;9.80;4.03;;;11.50;73.80;;;;;;4969891;28;20026;-75
2024/03/18 10:08:35;;;;;;;5.53;2.50;;;11.60;73.40;;;;;;4939440;29;20028;-76
2024/03/18 10:11:01;;;;;;;4.88;2.35;;;11.40;72.60;;;;;;4934821;29;20095;-74
2024/03/18 10:13:26;;;;;;;7.03;2.70;;;11.40;73.20;;;;;;4949017;29;20450;-76
2024/03/18 10:15:52;;;;;;;4.22;2.58;;;11.50;73.00;;;;;;4950998;28;20106;-76
2024/03/18 10:18:19;;;;;;;4.00;2.40;;;11.60;71.50;;;;;;4936190;29;20398;-76
2024/03/18 10:20:45;;;;;;;2.92;2.65;;;11.70;71.70;;;;;;4946869;29;20019;-78
2024/03/18 10:23:14;;;;;;;65.03;28.25;;;11.80;72.20;;;;;;4955022;29;20050;-78
2024/03/18 10:25:40;;;;;;;24.17;12.73;;;11.90;71.20;;;;;;4955070;28;20383;-82
2024/03/18 10:28:07;;;;;;;26.15;13.45;;;11.90;70.60;;;;;;4956770;28;20037;-81
2024/03/18 10:30:37;;;;;;;8.23;4.55;;;11.90;69.30;;;;;;4956692;28;20023;-80
2024/03/18 10:33:05;;;;;;;5.60;3.17;;;11.80;70.80;;;;;;4956883;29;20110;-79
2024/03/18 10:35:34;;;;;;;10.55;4.38;;;11.90;71.90;;;;;;4955567;28;20114;-84
2024/03/18 10:38:02;;;;;;;9.02;6.15;;;12.00;70.60;;;;;;4957425;29;20063;-82
2024/03/18 10:40:33;;;;;;;9.27;7.45;;;11.90;71.70;;;;;;4957593;29;20061;-84
2024/03/18 10:43:03;;;;;;;8.52;4.18;;;12.00;72.20;;;;;;4956794;29;20027;-81
2024/03/18 10:45:31;;;;;;;4.13;3.25;;;12.00;73.20;;;;;;4958603;28;20027;-80
2024/03/18 10:48:02;;;;;;;4.55;3.15;;;12.00;69.30;;;;;;4969196;28;20042;-80
2024/03/18 10:50:28;;;;;;;5.25;2.47;;;12.00;69.30;;;;;;4968350;28;20505;-81
2024/03/18 10:52:55;;;;;;;9.05;4.45;;;11.90;69.50;;;;;;4961385;28;20027;-81
2024/03/18 10:55:22;;;;;;;5.20;3.83;;;11.80;70.20;;;;;;4957313;28;20161;-81
2024/03/18 10:57:55;;;;;;;8.35;3.92;;;11.70;69.90;;;;;;4960225;28;20036;-81
2024/03/18 11:00:22;;;;;;;7.38;3.97;;;11.70;69.50;;;;;;4957413;28;20031;-78
2024/03/18 11:03:03;;;;;;;5.05;2.38;;;11.80;69.80;;;;;;4956954;29;20027;-80
2024/03/18 11:05:31;;;;;;;7.00;2.53;;;12.20;68.90;;;;;;4957471;28;20034;-81
2024/03/18 11:08:02;;;;;;;5.07;2.95;;;12.20;68.50;;;;;;4958521;28;20019;-80
2024/03/18 11:10:35;;;;;;;3.45;2.25;;;12.20;69.00;;;;;;4959401;28;20041;-80
2024/03/18 11:13:14;;;;;;;5.88;2.40;;;12.40;66.50;;;;;;4957035;29;20077;-81
2024/03/18 11:15:53;;;;;;;4.97;2.88;;;12.40;67.00;;;;;;4956408;28;20036;-80
2024/03/18 11:18:20;;;;;;;3.58;2.80;;;12.30;67.70;;;;;;4958431;28;20020;-80
2024/03/18 11:20:48;;;;;;;5.43;2.75;;;12.40;67.60;;;;;;4957286;29;20027;-81
2024/03/18 11:23:33;;;;;;;5.55;2.63;;;12.10;64.50;;;;;;4955776;29;20035;-82
2024/03/18 11:26:07;;;;;;;8.10;2.58;;;12.00;65.30;;;;;;4957025;29;20524;-83
2024/03/18 11:28:38;;;;;;;4.47;2.72;;;12.30;66.40;;;;;;4956440;28;20042;-82
2024/03/18 11:31:17;;;;;;;4.43;3.30;;;12.20;65.80;;;;;;4957143;28;20035;-80
2024/03/18 11:33:44;;;;;;;3.10;2.72;;;12.40;67.90;;;;;;4968318;28;20070;-79
2024/03/18 11:36:16;;;;;;;8.40;3.60;;;12.70;66.10;;;;;;4961088;29;20038;-80
2024/03/18 11:38:42;;;;;;;3.25;2.80;;;12.80;65.60;;;;;;4957022;28;20474;-80
2024/03/18 11:41:07;;;;;;;7.82;2.70;;;12.80;63.70;;;;;;4950382;29;20066;-79
2024/03/18 11:43:36;;;;;;;5.43;2.25;;;12.90;65.30;;;;;;4950211;28;20119;-78
2024/03/18 11:46:05;;;;;;;4.90;2.17;;;12.70;62.60;;;;;;4938785;29;20032;-80
2024/03/18 11:48:31;;;;;;;4.70;2.65;;;12.60;62.80;;;;;;4944882;29;20027;-80
2024/03/18 11:50:57;;;;;;;4.53;3.25;;;12.30;65.50;;;;;;4955441;29;20023;-80
2024/03/18 11:53:23;;;;;;;6.60;2.85;;;12.30;65.70;;;;;;4954725;29;20031;-79
2024/03/18 11:55:52;;;;;;;3.42;2.53;;;12.50;65.90;;;;;;4954987;29;20027;-80
2024/03/18 11:58:18;;;;;;;5.88;3.50;;;12.50;65.90;;;;;;4954526;29;20031;-80
2024/03/18 12:00:47;;;;;;;4.13;2.05;;;12.40;66.00;;;;;;4955879;29;20051;-79
2024/03/18 12:03:14;;;;;;;24.45;9.40;;;12.30;65.30;;;;;;4949631;29;20035;-79
2024/03/18 12:05:43;;;;;;;14.75;6.07;;;12.60;67.50;;;;;;4948562;28;20106;-79
2024/03/18 12:08:20;;;;;;;30.38;9.10;;;12.70;66.20;;;;;;4947614;29;20171;-79
2024/03/18 12:10:52;;;;;;;44.53;17.15;;;12.90;67.20;;;;;;4946721;29;20082;-79
2024/03/18 12:13:18;;;;;;;11.40;6.13;;;13.30;67.70;;;;;;4949805;29;20027;-80
2024/03/18 12:15:44;;;;;;;3.15;2.03;;;13.40;63.10;;;;;;4947052;29;20035;-80
2024/03/18 12:18:10;;;;;;;10.75;5.15;;;13.40;62.60;;;;;;4950809;29;20031;-79
2024/03/18 12:20:36;;;;;;;3.97;2.55;;;13.40;63.50;;;;;;4946278;29;20035;-80
2024/03/18 12:23:06;;;;;;;4.63;1.98;;;13.50;62.70;;;;;;4949125;29;20115;-80
2024/03/18 12:28:32;;;;;;;9.68;6.15;;;13.40;61.70;;;;;;4950373;29;20616;-80
2024/03/18 12:31:04;;;;;;;6.65;5.28;;;13.60;64.10;;;;;;4945260;29;20032;-80
2024/03/18 12:33:30;;;;;;;3.60;2.10;;;13.90;64.20;;;;;;4945687;29;20498;-80
2024/03/18 12:35:56;;;;;;;9.40;4.50;;;14.00;61.50;;;;;;4964099;28;20749;-80
2024/03/18 12:38:26;;;;;;;4.20;3.50;;;13.90;62.80;;;;;;4950619;29;20040;-80
2024/03/18 12:40:52;;;;;;;6.80;2.30;;;14.00;62.90;;;;;;4944513;29;20087;-80
2024/03/18 12:43:19;;;;;;;7.10;2.45;;;14.00;61.10;;;;;;4950486;29;20031;-80
2024/03/18 12:45:46;;;;;;;4.07;2.30;;;14.00;61.60;;;;;;4962018;28;20035;-80
2024/03/18 12:48:12;;;;;;;5.93;3.40;;;13.80;60.60;;;;;;4953090;29;20111;-80
2024/03/18 12:50:37;;;;;;;6.18;2.50;;;13.90;64.10;;;;;;4947752;29;20114;-80
2024/03/18 12:53:08;;;;;;;3.47;1.92;;;14.00;61.70;;;;;;4954557;29;20099;-80
2024/03/18 12:55:34;;;;;;;9.07;5.18;;;14.00;62.40;;;;;;4952265;28;20163;-80